sensor_id;sensor_type;location;lat;lon;timestamp;pressure;altitude;pressure_sealevel;temperature;humidity
43161;BME280;40968;52.342;5.528;2024-02-04T00:01:59;102191.41;;;8.84;100.00
43161;BME280;40968;52.342;5.528;2024-02-04T00:04:30;102258.53;;;9.18;100.00
43161;BME280;40968;52.342;5.528;2024-02-04T00:06:57;102301.16;;;9.41;100.00
43161;BME280;40968;52.342;5.528;2024-02-04T00:09:24;102284.38;;;9.38;100.00
43161;BME280;40968;52.342;5.528;2024-02-04T00:11:53;102158.06;;;8.53;100.00
43161;BME280;40968;52.342;5.528;2024-02-04T00:14:19;102293.47;;;9.34;100.00
43161;BME280;40968;52.342;5.528;2024-02-04T00:16:46;102258.81;;;9.11;100.00
43161;BME280;40968;52.342;5.528;2024-02-04T00:19:12;102184.13;;;8.69;100.00
43161;BME280;40968;52.342;5.528;2024-02-04T00:21:40;102286.53;;;9.29;100.00
43161;BME280;40968;52.342;5.528;2024-02-04T00:24:07;102213.97;;;8.78;100.00
43161;BME280;40968;52.342;5.528;2024-02-04T00:26:33;102254.78;;;9.03;100.00
43161;BME280;40968;52.342;5.528;2024-02-04T00:29:00;102269.16;;;9.19;100.00
43161;BME280;40968;52.342;5.528;2024-02-04T00:31:25;102215.78;;;8.78;100.00
43161;BME280;40968;52.342;5.528;2024-02-04T00:33:52;102290.44;;;9.22;100.00
43161;BME280;40968;52.342;5.528;2024-02-04T00:36:18;102268.00;;;9.06;100.00
43161;BME280;40968;52.342;5.528;2024-02-04T00:38:48;102289.72;;;9.19;100.00
43161;BME280;40968;52.342;5.528;2024-02-04T00:41:14;102289.84;;;9.16;100.00
43161;BME280;40968;52.342;5.528;2024-02-04T00:43:41;102242.09;;;8.87;100.00
43161;BME280;40968;52.342;5.528;2024-02-04T00:46:07;102284.56;;;9.14;100.00
43161;BME280;40968;52.342;5.528;2024-02-04T00:48:35;102215.28;;;8.68;100.00
43161;BME280;40968;52.342;5.528;2024-02-04T00:51:02;102233.94;;;8.70;100.00
43161;BME280;40968;52.342;5.528;2024-02-04T00:53:28;102261.47;;;8.92;100.00
43161;BME280;40968;52.342;5.528;2024-02-04T00:56:00;102291.00;;;9.10;100.00
43161;BME280;40968;52.342;5.528;2024-02-04T00:58:27;102171.00;;;8.42;100.00
43161;BME280;40968;52.342;5.528;2024-02-04T01:00:53;102252.78;;;8.87;100.00
43161;BME280;40968;52.342;5.528;2024-02-04T01:03:20;102258.13;;;8.87;100.00
43161;BME280;40968;52.342;5.528;2024-02-04T01:05:46;102142.41;;;8.23;100.00
43161;BME280;40968;52.342;5.528;2024-02-04T01:08:13;102265.75;;;8.96;100.00
43161;BME280;40968;52.342;5.528;2024-02-04T01:10:39;102274.34;;;9.03;100.00
43161;BME280;40968;52.342;5.528;2024-02-04T01:13:07;102203.22;;;8.59;100.00
43161;BME280;40968;52.342;5.528;2024-02-04T01:15:34;102279.69;;;9.03;100.00
43161;BME280;40968;52.342;5.528;2024-02-04T01:18:00;102185.28;;;8.41;100.00
43161;BME280;40968;52.342;5.528;2024-02-04T01:20:27;102275.44;;;8.99;100.00
43161;BME280;40968;52.342;5.528;2024-02-04T01:22:54;102252.91;;;8.84;100.00
43161;BME280;40968;52.342;5.528;2024-02-04T01:25:20;102270.28;;;8.94;100.00
43161;BME280;40968;52.342;5.528;2024-02-04T01:27:47;102126.94;;;8.11;100.00
43161;BME280;40968;52.342;5.528;2024-02-04T01:30:15;102041.22;;;7.55;100.00
43161;BME280;40968;52.342;5.528;2024-02-04T01:32:41;102234.22;;;8.63;100.00
43161;BME280;40968;52.342;5.528;2024-02-04T01:35:08;102072.00;;;7.64;100.00
43161;BME280;40968;52.342;5.528;2024-02-04T01:37:35;102237.84;;;8.62;100.00
43161;BME280;40968;52.342;5.528;2024-02-04T01:40:01;102112.91;;;7.85;100.00
43161;BME280;40968;52.342;5.528;2024-02-04T01:42:28;102288.47;;;8.86;99.93
43161;BME280;40968;52.342;5.528;2024-02-04T01:44:54;102289.56;;;8.82;99.56
43161;BME280;40968;52.342;5.528;2024-02-04T01:47:22;102291.34;;;8.82;99.16
43161;BME280;40968;52.342;5.528;2024-02-04T01:49:49;102286.13;;;8.78;98.91
43161;BME280;40968;52.342;5.528;2024-02-04T01:52:16;102284.28;;;8.81;98.83
43161;BME280;40968;52.342;5.528;2024-02-04T01:54:43;102246.09;;;8.56;98.54
43161;BME280;40968;52.342;5.528;2024-02-04T01:57:10;102163.66;;;8.06;98.36
43161;BME280;40968;52.342;5.528;2024-02-04T01:59:38;102146.47;;;7.91;98.29
43161;BME280;40968;52.342;5.528;2024-02-04T02:02:06;102262.03;;;8.59;98.40
43161;BME280;40968;52.342;5.528;2024-02-04T02:04:34;102249.03;;;8.50;98.08
43161;BME280;40968;52.342;5.528;2024-02-04T02:07:01;102287.13;;;8.76;97.85
43161;BME280;40968;52.342;5.528;2024-02-04T02:09:28;102202.25;;;8.19;97.53
43161;BME280;40968;52.342;5.528;2024-02-04T02:12:00;102241.44;;;8.39;96.99
43161;BME280;40968;52.342;5.528;2024-02-04T02:14:30;102176.44;;;7.97;96.21
43161;BME280;40968;52.342;5.528;2024-02-04T02:17:02;102289.53;;;8.61;95.17
43161;BME280;40968;52.342;5.528;2024-02-04T02:19:40;102175.97;;;7.88;93.69
43161;BME280;40968;52.342;5.528;2024-02-04T02:22:18;102281.91;;;8.52;93.12
43161;BME280;40968;52.342;5.528;2024-02-04T02:24:51;102115.09;;;7.53;92.74
43161;BME280;40968;52.342;5.528;2024-02-04T02:27:18;102267.03;;;8.46;92.49
43161;BME280;40968;52.342;5.528;2024-02-04T02:29:45;102207.97;;;8.10;92.42
43161;BME280;40968;52.342;5.528;2024-02-04T02:32:12;102186.13;;;8.00;92.10
43161;BME280;40968;52.342;5.528;2024-02-04T02:34:38;102182.06;;;7.91;91.06
43161;BME280;40968;52.342;5.528;2024-02-04T02:37:11;102262.06;;;8.36;90.89
43161;BME280;40968;52.342;5.528;2024-02-04T02:39:48;102257.63;;;8.36;90.74
43161;BME280;40968;52.342;5.528;2024-02-04T02:42:16;102199.41;;;8.02;90.94
43161;BME280;40968;52.342;5.528;2024-02-04T02:44:44;102221.25;;;8.11;90.65
43161;BME280;40968;52.342;5.528;2024-02-04T02:47:12;102208.16;;;8.05;90.88
43161;BME280;40968;52.342;5.528;2024-02-04T02:49:40;102240.56;;;8.18;90.84
43161;BME280;40968;52.342;5.528;2024-02-04T02:52:07;102205.81;;;7.97;90.74
43161;BME280;40968;52.342;5.528;2024-02-04T02:54:33;102170.09;;;7.79;90.61
43161;BME280;40968;52.342;5.528;2024-02-04T02:57:00;102258.00;;;8.27;90.54
43161;BME280;40968;52.342;5.528;2024-02-04T02:59:28;102254.47;;;8.26;90.11
43161;BME280;40968;52.342;5.528;2024-02-04T03:01:56;102186.28;;;7.75;89.93
43161;BME280;40968;52.342;5.528;2024-02-04T03:04:22;102211.97;;;8.00;89.55
43161;BME280;40968;52.342;5.528;2024-02-04T03:06:49;102180.41;;;7.87;89.13
43161;BME280;40968;52.342;5.528;2024-02-04T03:09:15;102260.88;;;8.22;88.87
43161;BME280;40968;52.342;5.528;2024-02-04T03:11:42;102168.91;;;7.64;88.40
43161;BME280;40968;52.342;5.528;2024-02-04T03:14:08;102221.16;;;7.92;88.09
43161;BME280;40968;52.342;5.528;2024-02-04T03:16:36;102259.47;;;8.13;88.04
43161;BME280;40968;52.342;5.528;2024-02-04T03:19:05;102130.25;;;7.30;88.18
43161;BME280;40968;52.342;5.528;2024-02-04T03:21:31;102276.47;;;8.11;88.25
43161;BME280;40968;52.342;5.528;2024-02-04T03:23:58;102250.94;;;8.04;88.13
43161;BME280;40968;52.342;5.528;2024-02-04T03:26:24;102262.38;;;8.07;87.67
43161;BME280;40968;52.342;5.528;2024-02-04T03:28:51;102220.53;;;7.86;87.86
43161;BME280;40968;52.342;5.528;2024-02-04T03:31:19;102262.31;;;8.09;88.06
43161;BME280;40968;52.342;5.528;2024-02-04T03:33:47;102261.38;;;8.10;88.43
43161;BME280;40968;52.342;5.528;2024-02-04T03:36:17;102220.47;;;7.87;88.72
43161;BME280;40968;52.342;5.528;2024-02-04T03:38:44;102086.72;;;7.08;89.00
43161;BME280;40968;52.342;5.528;2024-02-04T03:41:11;102236.53;;;7.86;89.06
43161;BME280;40968;52.342;5.528;2024-02-04T03:43:37;102268.81;;;8.02;89.46
43161;BME280;40968;52.342;5.528;2024-02-04T03:46:04;102213.81;;;7.75;89.34
43161;BME280;40968;52.342;5.528;2024-02-04T03:48:30;102272.19;;;8.07;89.53
43161;BME280;40968;52.342;5.528;2024-02-04T03:51:00;102117.66;;;7.12;89.43
43161;BME280;40968;52.342;5.528;2024-02-04T03:53:27;102104.56;;;7.06;89.25
43161;BME280;40968;52.342;5.528;2024-02-04T03:55:53;102105.59;;;7.02;89.19
43161;BME280;40968;52.342;5.528;2024-02-04T03:58:20;102228.75;;;7.81;89.35
43161;BME280;40968;52.342;5.528;2024-02-04T04:00:54;102257.91;;;8.08;89.54
43161;BME280;40968;52.342;5.528;2024-02-04T04:03:20;102166.97;;;7.46;89.53
43161;BME280;40968;52.342;5.528;2024-02-04T04:05:47;102269.47;;;8.08;89.45
43161;BME280;40968;52.342;5.528;2024-02-04T04:08:15;102252.56;;;8.08;89.40
43161;BME280;40968;52.342;5.528;2024-02-04T04:10:43;102254.31;;;8.09;89.30
43161;BME280;40968;52.342;5.528;2024-02-04T04:13:10;102234.78;;;8.07;88.62
43161;BME280;40968;52.342;5.528;2024-02-04T04:15:37;102226.75;;;8.08;88.38
43161;BME280;40968;52.342;5.528;2024-02-04T04:18:04;102231.13;;;8.09;88.59
43161;BME280;40968;52.342;5.528;2024-02-04T04:20:30;102157.00;;;7.51;87.83
43161;BME280;40968;52.342;5.528;2024-02-04T04:22:57;102079.47;;;7.11;87.37
43161;BME280;40968;52.342;5.528;2024-02-04T04:25:25;102206.47;;;7.82;86.64
43161;BME280;40968;52.342;5.528;2024-02-04T04:27:51;102206.31;;;7.85;86.72
43161;BME280;40968;52.342;5.528;2024-02-04T04:30:18;102196.81;;;7.78;86.25
43161;BME280;40968;52.342;5.528;2024-02-04T04:32:44;102216.19;;;7.83;84.82
43161;BME280;40968;52.342;5.528;2024-02-04T04:35:11;102153.50;;;7.49;84.22
43161;BME280;40968;52.342;5.528;2024-02-04T04:37:37;102166.44;;;7.60;83.30
43161;BME280;40968;52.342;5.528;2024-02-04T04:40:05;102236.66;;;8.05;83.00
43161;BME280;40968;52.342;5.528;2024-02-04T04:42:33;102227.84;;;8.03;81.62
43161;BME280;40968;52.342;5.528;2024-02-04T04:44:59;102147.19;;;7.52;81.26
43161;BME280;40968;52.342;5.528;2024-02-04T04:47:26;102236.66;;;8.05;80.86
43161;BME280;40968;52.342;5.528;2024-02-04T04:49:53;102195.91;;;7.79;79.28
43161;BME280;40968;52.342;5.528;2024-02-04T04:52:19;102113.19;;;7.35;79.04
43161;BME280;40968;52.342;5.528;2024-02-04T04:54:48;102220.66;;;8.05;78.61
43161;BME280;40968;52.342;5.528;2024-02-04T04:57:14;102081.00;;;7.17;78.75
43161;BME280;40968;52.342;5.528;2024-02-04T04:59:42;102011.38;;;6.80;78.25
43161;BME280;40968;52.342;5.528;2024-02-04T05:02:09;102005.88;;;6.85;78.24
43161;BME280;40968;52.342;5.528;2024-02-04T05:04:36;102221.44;;;8.07;78.29
43161;BME280;40968;52.342;5.528;2024-02-04T05:07:03;102174.38;;;7.84;78.11
43161;BME280;40968;52.342;5.528;2024-02-04T05:09:30;102085.16;;;7.24;78.27
43161;BME280;40968;52.342;5.528;2024-02-04T05:11:56;101980.00;;;6.65;77.83
43161;BME280;40968;52.342;5.528;2024-02-04T05:14:23;102237.59;;;8.04;77.92
43161;BME280;40968;52.342;5.528;2024-02-04T05:16:52;102232.31;;;8.02;77.97
43161;BME280;40968;52.342;5.528;2024-02-04T05:19:18;102233.19;;;8.03;78.26
43161;BME280;40968;52.342;5.528;2024-02-04T05:21:45;102221.03;;;7.95;78.34
43161;BME280;40968;52.342;5.528;2024-02-04T05:24:11;102235.91;;;8.01;77.76
43161;BME280;40968;52.342;5.528;2024-02-04T05:26:38;102161.03;;;7.61;78.16
43161;BME280;40968;52.342;5.528;2024-02-04T05:29:05;102235.06;;;8.01;77.69
43161;BME280;40968;52.342;5.528;2024-02-04T05:31:31;102128.81;;;7.44;78.15
43161;BME280;40968;52.342;5.528;2024-02-04T05:33:59;102199.53;;;7.99;78.04
43161;BME280;40968;52.342;5.528;2024-02-04T05:36:26;102198.63;;;8.00;77.83
43161;BME280;40968;52.342;5.528;2024-02-04T05:38:52;102199.53;;;7.99;77.69
43161;BME280;40968;52.342;5.528;2024-02-04T05:41:19;102144.56;;;7.72;77.40
43161;BME280;40968;52.342;5.528;2024-02-04T05:43:45;102166.06;;;7.69;77.73
43161;BME280;40968;52.342;5.528;2024-02-04T05:46:13;102216.44;;;7.99;77.88
43161;BME280;40968;52.342;5.528;2024-02-04T05:48:40;102194.59;;;7.89;77.87
43161;BME280;40968;52.342;5.528;2024-02-04T05:51:11;102211.97;;;8.00;78.06
43161;BME280;40968;52.342;5.528;2024-02-04T05:53:37;102135.91;;;7.45;78.43
43161;BME280;40968;52.342;5.528;2024-02-04T05:56:04;102004.44;;;6.76;78.65
43161;BME280;40968;52.342;5.528;2024-02-04T05:58:31;102051.25;;;7.06;78.94
43161;BME280;40968;52.342;5.528;2024-02-04T06:00:57;102212.88;;;7.99;79.62
43161;BME280;40968;52.342;5.528;2024-02-04T06:03:24;102202.28;;;7.97;79.71
43161;BME280;40968;52.342;5.528;2024-02-04T06:05:50;102199.53;;;7.99;80.51
43161;BME280;40968;52.342;5.528;2024-02-04T06:08:18;102217.31;;;8.00;81.02
43161;BME280;40968;52.342;5.528;2024-02-04T06:10:45;102141.28;;;7.66;81.66
43161;BME280;40968;52.342;5.528;2024-02-04T06:13:11;102206.63;;;8.00;82.47
43161;BME280;40968;52.342;5.528;2024-02-04T06:15:38;102058.75;;;7.18;83.02
43161;BME280;40968;52.342;5.528;2024-02-04T06:18:05;102183.53;;;7.99;83.84
43161;BME280;40968;52.342;5.528;2024-02-04T06:20:31;102053.16;;;7.24;84.50
43161;BME280;40968;52.342;5.528;2024-02-04T06:22:58;102175.44;;;8.00;85.38
43161;BME280;40968;52.342;5.528;2024-02-04T06:25:27;102165.66;;;8.01;85.90
43161;BME280;40968;52.342;5.528;2024-02-04T06:27:54;102116.88;;;7.75;86.31
43161;BME280;40968;52.342;5.528;2024-02-04T06:30:20;102115.97;;;7.76;86.52
43161;BME280;40968;52.342;5.528;2024-02-04T06:32:47;102102.13;;;7.66;86.95
43161;BME280;40968;52.342;5.528;2024-02-04T06:35:14;102155.91;;;8.00;86.97
43161;BME280;40968;52.342;5.528;2024-02-04T06:37:41;102122.09;;;7.78;87.19
43161;BME280;40968;52.342;5.528;2024-02-04T06:40:09;102149.75;;;7.97;87.15
43161;BME280;40968;52.342;5.528;2024-02-04T06:42:37;102105.00;;;7.61;87.08
43161;BME280;40968;52.342;5.528;2024-02-04T06:45:04;102038.72;;;7.08;87.04
43161;BME280;40968;52.342;5.528;2024-02-04T06:47:31;102042.44;;;7.26;87.13
43161;BME280;40968;52.342;5.528;2024-02-04T06:49:57;102172.91;;;7.97;87.29
43161;BME280;40968;52.342;5.528;2024-02-04T06:52:24;102082.78;;;7.39;87.16
43161;BME280;40968;52.342;5.528;2024-02-04T06:54:50;102004.31;;;7.02;87.49
43161;BME280;40968;52.342;5.528;2024-02-04T06:57:17;102139.59;;;7.85;87.58
43161;BME280;40968;52.342;5.528;2024-02-04T06:59:45;102153.38;;;7.96;87.25
43161;BME280;40968;52.342;5.528;2024-02-04T07:02:11;102069.13;;;7.46;87.67
43161;BME280;40968;52.342;5.528;2024-02-04T07:04:38;102145.34;;;7.96;87.93
43161;BME280;40968;52.342;5.528;2024-02-04T07:07:04;102150.69;;;7.96;88.31
43161;BME280;40968;52.342;5.528;2024-02-04T07:09:31;102139.94;;;7.98;88.34
43161;BME280;40968;52.342;5.528;2024-02-04T07:11:58;102075.97;;;7.54;88.63
43161;BME280;40968;52.342;5.528;2024-02-04T07:14:24;102082.59;;;7.66;88.62
43161;BME280;40968;52.342;5.528;2024-02-04T07:16:52;102139.88;;;8.00;89.18
43161;BME280;40968;52.342;5.528;2024-02-04T07:19:19;102138.94;;;8.01;89.23
43161;BME280;40968;52.342;5.528;2024-02-04T07:21:45;102078.59;;;7.76;89.51
43161;BME280;40968;52.342;5.528;2024-02-04T07:24:12;102138.94;;;8.01;89.81
43161;BME280;40968;52.342;5.528;2024-02-04T07:26:38;102060.88;;;7.53;89.98
43161;BME280;40968;52.342;5.528;2024-02-04T07:29:05;102088.59;;;7.71;90.04
43161;BME280;40968;52.342;5.528;2024-02-04T07:31:31;102119.69;;;7.92;89.84
43161;BME280;40968;52.342;5.528;2024-02-04T07:34:04;102144.00;;;8.07;89.83
43161;BME280;40968;52.342;5.528;2024-02-04T07:36:30;102149.34;;;8.07;89.59
43161;BME280;40968;52.342;5.528;2024-02-04T07:38:57;102151.91;;;8.10;89.50
43161;BME280;40968;52.342;5.528;2024-02-04T07:41:25;102109.31;;;7.86;88.76
43161;BME280;40968;52.342;5.528;2024-02-04T07:43:52;102032.53;;;7.50;88.42
43161;BME280;40968;52.342;5.528;2024-02-04T07:46:19;102112.50;;;7.94;88.26
43161;BME280;40968;52.342;5.528;2024-02-04T07:48:45;102124.38;;;8.08;88.16
43161;BME280;40968;52.342;5.528;2024-02-04T07:51:13;102140.75;;;8.21;88.28
43161;BME280;40968;52.342;5.528;2024-02-04T07:53:40;102047.75;;;7.69;88.35
43161;BME280;40968;52.342;5.528;2024-02-04T07:56:07;102066.72;;;7.83;88.70
43161;BME280;40968;52.342;5.528;2024-02-04T07:58:33;102098.91;;;8.01;89.03
43161;BME280;40968;52.342;5.528;2024-02-04T08:01:00;102082.31;;;7.92;89.98
43161;BME280;40968;52.342;5.528;2024-02-04T08:03:27;102131.81;;;8.22;90.84
43161;BME280;40968;52.342;5.528;2024-02-04T08:05:53;102056.25;;;7.78;91.31
43161;BME280;40968;52.342;5.528;2024-02-04T08:08:21;101926.34;;;6.96;92.13
43161;BME280;40968;52.342;5.528;2024-02-04T08:10:48;102091.41;;;7.88;93.44
43161;BME280;40968;52.342;5.528;2024-02-04T08:13:14;102134.41;;;8.23;94.45
43161;BME280;40968;52.342;5.528;2024-02-04T08:15:41;101921.06;;;6.95;95.01
43161;BME280;40968;52.342;5.528;2024-02-04T08:18:07;102129.22;;;8.20;95.86
43161;BME280;40968;52.342;5.528;2024-02-04T08:20:34;102010.44;;;7.46;95.91
43161;BME280;40968;52.342;5.528;2024-02-04T08:23:00;102134.25;;;8.26;96.62
43161;BME280;40968;52.342;5.528;2024-02-04T08:25:28;102129.81;;;8.27;96.66
43161;BME280;40968;52.342;5.528;2024-02-04T08:27:55;102066.47;;;7.89;97.14
43161;BME280;40968;52.342;5.528;2024-02-04T08:30:21;102093.00;;;8.13;97.57
43161;BME280;40968;52.342;5.528;2024-02-04T08:32:48;101662.88;;;5.62;97.03
43161;BME280;40968;52.342;5.528;2024-02-04T08:35:15;101950.38;;;7.38;97.38
43161;BME280;40968;52.342;5.528;2024-02-04T08:37:41;102116.91;;;8.37;97.40
43161;BME280;40968;52.342;5.528;2024-02-04T08:40:09;102107.88;;;8.39;97.35
43161;BME280;40968;52.342;5.528;2024-02-04T08:42:37;102099.78;;;8.41;97.17
43161;BME280;40968;52.342;5.528;2024-02-04T08:45:05;102109.47;;;8.43;96.86
43161;BME280;40968;52.342;5.528;2024-02-04T08:47:31;101982.53;;;7.76;96.55
43161;BME280;40968;52.342;5.528;2024-02-04T08:49:58;101811.72;;;6.76;95.95
43161;BME280;40968;52.342;5.528;2024-02-04T08:52:24;102005.56;;;7.97;95.89
43161;BME280;40968;52.342;5.528;2024-02-04T08:54:51;102080.16;;;8.42;95.71
43161;BME280;40968;52.342;5.528;2024-02-04T08:57:17;102099.94;;;8.58;95.41
43161;BME280;40968;52.342;5.528;2024-02-04T08:59:45;102101.59;;;8.61;94.74
43161;BME280;40968;52.342;5.528;2024-02-04T09:02:12;102102.31;;;8.65;94.35
43161;BME280;40968;52.342;5.528;2024-02-04T09:04:39;102116.47;;;8.67;94.12
43161;BME280;40968;52.342;5.528;2024-02-04T09:07:06;102085.16;;;8.70;94.25
43161;BME280;40968;52.342;5.528;2024-02-04T09:09:33;101882.72;;;7.40;93.84
43161;BME280;40968;52.342;5.528;2024-02-04T09:11:59;101877.09;;;7.46;93.80
43161;BME280;40968;52.342;5.528;2024-02-04T09:14:26;102071.19;;;8.63;93.43
43161;BME280;40968;52.342;5.528;2024-02-04T09:16:54;101620.28;;;5.84;93.24
43161;BME280;40968;52.342;5.528;2024-02-04T09:19:21;101943.28;;;7.78;93.44
43161;BME280;40968;52.342;5.528;2024-02-04T09:21:47;101836.78;;;7.13;93.58
43161;BME280;40968;52.342;5.528;2024-02-04T09:24:14;102114.97;;;8.80;93.67
43161;BME280;40968;52.342;5.528;2024-02-04T09:26:40;101814.78;;;7.08;93.50
43161;BME280;40968;52.342;5.528;2024-02-04T09:29:07;102106.81;;;8.83;94.12
43161;BME280;40968;52.342;5.528;2024-02-04T09:31:33;102121.91;;;8.84;94.20
43161;BME280;40968;52.342;5.528;2024-02-04T09:34:01;102054.72;;;8.54;94.60
43161;BME280;40968;52.342;5.528;2024-02-04T09:36:28;102111.09;;;8.87;95.30
43161;BME280;40968;52.342;5.528;2024-02-04T09:38:54;102012.94;;;8.32;95.75
43161;BME280;40968;52.342;5.528;2024-02-04T09:41:21;102106.38;;;8.92;96.18
43161;BME280;40968;52.342;5.528;2024-02-04T09:43:50;101893.81;;;7.71;96.32
43161;BME280;40968;52.342;5.528;2024-02-04T09:46:17;102097.13;;;9.00;96.68
43161;BME280;40968;52.342;5.528;2024-02-04T09:48:45;102070.09;;;8.87;96.72
43161;BME280;40968;52.342;5.528;2024-02-04T09:51:13;102099.50;;;9.06;96.91
43161;BME280;40968;52.342;5.528;2024-02-04T09:53:43;102116.38;;;9.08;97.02
43161;BME280;40968;52.342;5.528;2024-02-04T09:56:11;101859.47;;;7.63;97.13
43161;BME280;40968;52.342;5.528;2024-02-04T09:58:38;102094.66;;;9.14;97.07
43161;BME280;40968;52.342;5.528;2024-02-04T10:01:07;101890.13;;;7.92;96.88
43161;BME280;40968;52.342;5.528;2024-02-04T10:03:34;102097.03;;;9.20;96.90
43161;BME280;40968;52.342;5.528;2024-02-04T10:06:01;102056.09;;;9.01;96.59
43161;BME280;40968;52.342;5.528;2024-02-04T10:08:29;102093.28;;;9.24;96.57
43161;BME280;40968;52.342;5.528;2024-02-04T10:10:55;102082.09;;;9.16;96.32
43161;BME280;40968;52.342;5.528;2024-02-04T10:13:23;101994.19;;;8.72;95.95
43161;BME280;40968;52.342;5.528;2024-02-04T10:15:50;101944.28;;;8.34;95.99
43161;BME280;40968;52.342;5.528;2024-02-04T10:18:17;102092.75;;;9.35;95.78
43161;BME280;40968;52.342;5.528;2024-02-04T10:20:44;102090.31;;;9.31;95.89
43161;BME280;40968;52.342;5.528;2024-02-04T10:23:10;102063.38;;;9.16;95.59
43161;BME280;40968;52.342;5.528;2024-02-04T10:25:38;102093.31;;;9.42;94.97
43161;BME280;40968;52.342;5.528;2024-02-04T10:28:05;102059.88;;;9.14;94.36
43161;BME280;40968;52.342;5.528;2024-02-04T10:30:32;102043.50;;;9.03;93.28
43161;BME280;40968;52.342;5.528;2024-02-04T10:32:59;102070.84;;;9.27;92.78
43161;BME280;40968;52.342;5.528;2024-02-04T10:35:26;102085.16;;;9.26;92.51
43161;BME280;40968;52.342;5.528;2024-02-04T10:37:53;101877.88;;;8.07;91.07
43161;BME280;40968;52.342;5.528;2024-02-04T10:40:19;102102.56;;;9.54;90.67
43161;BME280;40968;52.342;5.528;2024-02-04T10:42:49;102097.13;;;9.55;90.40
43161;BME280;40968;52.342;5.528;2024-02-04T10:45:17;102103.25;;;9.57;89.56
43161;BME280;40968;52.342;5.528;2024-02-04T10:47:51;102117.44;;;9.59;88.94
43161;BME280;40968;52.342;5.528;2024-02-04T10:50:23;102087.91;;;9.43;88.46
43161;BME280;40968;52.342;5.528;2024-02-04T10:52:51;102115.06;;;9.53;88.08
43161;BME280;40968;52.342;5.528;2024-02-04T10:55:21;102127.84;;;9.66;88.56
43161;BME280;40968;52.342;5.528;2024-02-04T10:57:54;102130.44;;;9.67;87.99
43161;BME280;40968;52.342;5.528;2024-02-04T11:00:21;102097.59;;;9.46;88.43
43161;BME280;40968;52.342;5.528;2024-02-04T11:02:49;101892.50;;;8.37;87.78
43161;BME280;40968;52.342;5.528;2024-02-04T11:05:19;102120.44;;;9.71;87.87
43161;BME280;40968;52.342;5.528;2024-02-04T11:07:47;102107.84;;;9.73;88.19
43161;BME280;40968;52.342;5.528;2024-02-04T11:10:16;102088.00;;;9.59;88.30
43161;BME280;40968;52.342;5.528;2024-02-04T11:12:44;102040.13;;;9.36;88.23
43161;BME280;40968;52.342;5.528;2024-02-04T11:15:15;102032.09;;;9.36;88.36
43161;BME280;40968;52.342;5.528;2024-02-04T11:18:07;101995.22;;;9.23;88.33
43161;BME280;40968;52.342;5.528;2024-02-04T11:20:54;102090.03;;;9.72;88.07
43161;BME280;40968;52.342;5.528;2024-02-04T11:23:37;102091.78;;;9.73;88.27
43161;BME280;40968;52.342;5.528;2024-02-04T11:26:09;101820.72;;;8.11;87.92
43161;BME280;40968;52.342;5.528;2024-02-04T11:28:37;102116.91;;;9.88;88.17
43161;BME280;40968;52.342;5.528;2024-02-04T11:31:13;102030.50;;;9.49;88.40
43161;BME280;40968;52.342;5.528;2024-02-04T11:33:40;102077.28;;;9.77;88.52
43161;BME280;40968;52.342;5.528;2024-02-04T11:36:07;102087.22;;;9.92;88.61
43161;BME280;40968;52.342;5.528;2024-02-04T11:38:39;101943.59;;;9.04;88.66
43161;BME280;40968;52.342;5.528;2024-02-04T11:41:06;102045.94;;;9.61;89.13
43161;BME280;40968;52.342;5.528;2024-02-04T11:43:33;102088.94;;;9.93;89.46
43161;BME280;40968;52.342;5.528;2024-02-04T11:46:02;102056.56;;;9.81;89.79
43161;BME280;40968;52.342;5.528;2024-02-04T11:48:31;102078.47;;;9.89;89.97
43161;BME280;40968;52.342;5.528;2024-02-04T11:50:59;101900.34;;;8.78;90.12
43161;BME280;40968;52.342;5.528;2024-02-04T11:53:26;102081.94;;;9.91;90.24
43161;BME280;40968;52.342;5.528;2024-02-04T11:55:57;102060.06;;;9.83;90.72
43161;BME280;40968;52.342;5.528;2024-02-04T11:58:25;102028.31;;;9.57;91.15
43161;BME280;40968;52.342;5.528;2024-02-04T12:00:52;101843.88;;;8.49;91.13
43161;BME280;40968;52.342;5.528;2024-02-04T12:03:28;102003.13;;;9.44;91.91
43161;BME280;40968;52.342;5.528;2024-02-04T12:05:57;101944.09;;;9.12;92.21
43161;BME280;40968;52.342;5.528;2024-02-04T12:08:24;102060.34;;;9.94;92.65
43161;BME280;40968;52.342;5.528;2024-02-04T12:10:51;102053.81;;;10.00;92.67
43161;BME280;40968;52.342;5.528;2024-02-04T12:13:18;102045.63;;;10.03;92.66
43161;BME280;40968;52.342;5.528;2024-02-04T12:15:46;101878.41;;;9.06;92.26
43161;BME280;40968;52.342;5.528;2024-02-04T12:18:12;101839.16;;;8.89;92.20
43161;BME280;40968;52.342;5.528;2024-02-04T12:20:39;102045.50;;;10.22;92.34
43161;BME280;40968;52.342;5.528;2024-02-04T12:23:07;102008.44;;;9.96;91.97
43161;BME280;40968;52.342;5.528;2024-02-04T12:25:35;102044.00;;;10.34;91.86
43161;BME280;40968;52.342;5.528;2024-02-04T12:28:02;102053.63;;;10.38;91.37
43161;BME280;40968;52.342;5.528;2024-02-04T12:30:30;102000.88;;;10.05;90.95
43161;BME280;40968;52.342;5.528;2024-02-04T12:32:57;102031.50;;;10.17;90.11
43161;BME280;40968;52.342;5.528;2024-02-04T12:35:24;102036.16;;;10.13;90.13
43161;BME280;40968;52.342;5.528;2024-02-04T12:37:51;102060.53;;;10.24;90.80
43161;BME280;40968;52.342;5.528;2024-02-04T12:40:22;102050.94;;;10.20;91.15
43161;BME280;40968;52.342;5.528;2024-02-04T12:42:52;102063.88;;;10.12;91.53
43161;BME280;40968;52.342;5.528;2024-02-04T12:45:18;101972.59;;;9.66;91.86
43161;BME280;40968;52.342;5.528;2024-02-04T12:47:49;101966.75;;;9.57;91.72
43161;BME280;40968;52.342;5.528;2024-02-04T12:50:16;102039.00;;;9.92;91.77
43161;BME280;40968;52.342;5.528;2024-02-04T12:52:44;101968.97;;;9.49;90.64
43161;BME280;40968;52.342;5.528;2024-02-04T12:55:19;102031.84;;;9.75;89.82
43161;BME280;40968;52.342;5.528;2024-02-04T12:57:47;101790.53;;;8.28;89.34
43161;BME280;40968;52.342;5.528;2024-02-04T13:00:17;102022.16;;;9.73;90.02